SWR7PE LSZH-EDDM
Flight info
| Callsign | SWR7PE |
|---|---|
| Flight time | N/A |
| Altitude | 24000 |
| Route | DEGES Z6 NUNRI/N0393F230 T103 BETOS BETOS1A |
| Aircraft | A320/M-SDE3FGHIRWY/LB1 |
Departure
| Time | N/A |
|---|---|
| Airport | Zürich Airport (LSZH) |
Arrival
| Time | 2026-05-08 06:00 |
|---|---|
| Airport | Munich Airport (EDDM) |
| Time | Latitude | Longitude | Altitude | Speed | Heading |
|---|---|---|---|---|---|
| 2026-05-08 05:38 | 47.43239 | 9.17305 | 23135 ft | 424 kts | 83° |
| 2026-05-08 05:38 | 47.43627 | 9.21641 | 23661 ft | 428 kts | 83° |
| 2026-05-08 05:38 | 47.44019 | 9.26024 | 23971 ft | 432 kts | 83° |
| 2026-05-08 05:38 | 47.44415 | 9.30424 | 24058 ft | 432 kts | 83° |
| 2026-05-08 05:39 | 47.44807 | 9.34830 | 24077 ft | 433 kts | 83° |
| 2026-05-08 05:39 | 47.45194 | 9.39234 | 24080 ft | 433 kts | 83° |
| 2026-05-08 05:39 | 47.45577 | 9.43640 | 24083 ft | 433 kts | 83° |
| 2026-05-08 05:39 | 47.45956 | 9.47989 | 24083 ft | 433 kts | 83° |
| 2026-05-08 05:40 | 47.46341 | 9.52397 | 24086 ft | 433 kts | 83° |
| 2026-05-08 05:40 | 47.46726 | 9.56805 | 24082 ft | 433 kts | 83° |
| 2026-05-08 05:40 | 47.47108 | 9.61211 | 24087 ft | 433 kts | 83° |
| 2026-05-08 05:40 | 47.47487 | 9.65642 | 24083 ft | 433 kts | 83° |
| 2026-05-08 05:41 | 47.47862 | 9.70060 | 24082 ft | 433 kts | 83° |
| 2026-05-08 05:41 | 47.48230 | 9.74412 | 24078 ft | 433 kts | 83° |
| 2026-05-08 05:41 | 47.48606 | 9.78901 | 24074 ft | 434 kts | 83° |
| 2026-05-08 05:41 | 47.48972 | 9.83263 | 24071 ft | 434 kts | 83° |
| 2026-05-08 05:42 | 47.49342 | 9.87679 | 24063 ft | 434 kts | 83° |
| 2026-05-08 05:42 | 47.49710 | 9.92110 | 24059 ft | 434 kts | 83° |
| 2026-05-08 05:42 | 47.50255 | 9.96488 | 24057 ft | 434 kts | 72° |
| 2026-05-08 05:42 | 47.51529 | 10.00515 | 24051 ft | 432 kts | 55° |
| 2026-05-08 05:43 | 47.53403 | 10.03967 | 24046 ft | 431 kts | 47° |
| 2026-05-08 05:43 | 47.55370 | 10.07319 | 24044 ft | 431 kts | 47° |
| 2026-05-08 05:43 | 47.57334 | 10.10662 | 24038 ft | 431 kts | 47° |
| 2026-05-08 05:43 | 47.59302 | 10.14015 | 24041 ft | 431 kts | 47° |
| 2026-05-08 05:44 | 47.60942 | 10.16814 | 24042 ft | 431 kts | 47° |
| 2026-05-08 05:44 | 47.62879 | 10.20127 | 23929 ft | 429 kts | 47° |
| 2026-05-08 05:44 | 47.64816 | 10.23446 | 23698 ft | 425 kts | 47° |
| 2026-05-08 05:44 | 47.66739 | 10.26751 | 23444 ft | 423 kts | 47° |
| 2026-05-08 05:45 | 47.68661 | 10.30058 | 23165 ft | 421 kts | 47° |
| 2026-05-08 05:45 | 47.70567 | 10.33340 | 22892 ft | 419 kts | 47° |
| 2026-05-08 05:45 | 47.72455 | 10.36597 | 22551 ft | 414 kts | 47° |
| 2026-05-08 05:45 | 47.74142 | 10.39505 | 22092 ft | 410 kts | 47° |
| 2026-05-08 05:46 | 47.76036 | 10.42771 | 21566 ft | 407 kts | 47° |
| 2026-05-08 05:46 | 47.77871 | 10.45937 | 21076 ft | 403 kts | 47° |
| 2026-05-08 05:46 | 47.79667 | 10.49044 | 20586 ft | 399 kts | 47° |
| 2026-05-08 05:46 | 47.81465 | 10.52165 | 20082 ft | 396 kts | 47° |
| 2026-05-08 05:47 | 47.83250 | 10.55268 | 19572 ft | 393 kts | 48° |
| 2026-05-08 05:47 | 47.85027 | 10.58357 | 19053 ft | 392 kts | 48° |
| 2026-05-08 05:47 | 47.86792 | 10.61432 | 18536 ft | 390 kts | 48° |
| 2026-05-08 05:47 | 47.88551 | 10.64502 | 17958 ft | 388 kts | 48° |
| 2026-05-08 05:48 | 47.90296 | 10.67551 | 17417 ft | 384 kts | 48° |
| 2026-05-08 05:48 | 47.91993 | 10.70512 | 16903 ft | 379 kts | 48° |
| 2026-05-08 05:48 | 47.93697 | 10.73489 | 16374 ft | 377 kts | 48° |
| 2026-05-08 05:48 | 47.95397 | 10.76459 | 15852 ft | 375 kts | 48° |
| 2026-05-08 05:49 | 47.97084 | 10.79409 | 15325 ft | 373 kts | 48° |
| 2026-05-08 05:49 | 47.98746 | 10.82325 | 14811 ft | 365 kts | 48° |
| 2026-05-08 05:49 | 48.00379 | 10.85199 | 14304 ft | 361 kts | 48° |
| 2026-05-08 05:49 | 48.02002 | 10.88056 | 13785 ft | 361 kts | 48° |
| 2026-05-08 05:50 | 48.03623 | 10.90910 | 13228 ft | 359 kts | 48° |
| 2026-05-08 05:50 | 48.05235 | 10.93742 | 12718 ft | 357 kts | 48° |
| 2026-05-08 05:50 | 48.06836 | 10.96564 | 12176 ft | 355 kts | 48° |
| 2026-05-08 05:50 | 48.08404 | 10.99331 | 11697 ft | 352 kts | 48° |
| 2026-05-08 05:51 | 48.09981 | 11.02115 | 10697 ft | 351 kts | 48° |
| 2026-05-08 05:51 | 48.11557 | 11.04898 | 9701 ft | 348 kts | 48° |
| 2026-05-08 05:51 | 48.13106 | 11.07643 | 8731 ft | 342 kts | 49° |
| 2026-05-08 05:51 | 48.14584 | 11.10270 | 8500 ft | 315 kts | 49° |
| 2026-05-08 05:52 | 48.15943 | 11.12688 | 8371 ft | 296 kts | 49° |
| 2026-05-08 05:52 | 48.17262 | 11.15029 | 8247 ft | 293 kts | 49° |
| 2026-05-08 05:52 | 48.18571 | 11.17347 | 8118 ft | 290 kts | 48° |
| 2026-05-08 05:52 | 48.19869 | 11.19652 | 7993 ft | 289 kts | 49° |
| 2026-05-08 05:53 | 48.21144 | 11.21922 | 7868 ft | 288 kts | 49° |
| 2026-05-08 05:53 | 48.22437 | 11.24223 | 7718 ft | 288 kts | 49° |
| 2026-05-08 05:53 | 48.23736 | 11.26534 | 7173 ft | 288 kts | 49° |
| 2026-05-08 05:53 | 48.25014 | 11.28813 | 6515 ft | 284 kts | 49° |
| 2026-05-08 05:54 | 48.26268 | 11.31057 | 5858 ft | 279 kts | 49° |
| 2026-05-08 05:54 | 48.27371 | 11.33383 | 5660 ft | 267 kts | 61° |
| 2026-05-08 05:54 | 48.28239 | 11.35770 | 5596 ft | 252 kts | 60° |
| 2026-05-08 05:54 | 48.29062 | 11.38000 | 5501 ft | 238 kts | 60° |
| 2026-05-08 05:55 | 48.29848 | 11.40131 | 5371 ft | 228 kts | 60° |
| 2026-05-08 05:55 | 48.30571 | 11.42107 | 5283 ft | 223 kts | 61° |
| 2026-05-08 05:55 | 48.31316 | 11.44149 | 5180 ft | 222 kts | 62° |
| 2026-05-08 05:55 | 48.31800 | 11.46327 | 5087 ft | 222 kts | 81° |
| 2026-05-08 05:56 | 48.31993 | 11.48630 | 4969 ft | 222 kts | 84° |
| 2026-05-08 05:56 | 48.32164 | 11.50928 | 4722 ft | 220 kts | 83° |
| 2026-05-08 05:56 | 48.32342 | 11.53203 | 4438 ft | 219 kts | 83° |
| 2026-05-08 05:56 | 48.32522 | 11.55468 | 4143 ft | 215 kts | 83° |
| 2026-05-08 05:57 | 48.32694 | 11.57632 | 3860 ft | 203 kts | 83° |
| 2026-05-08 05:57 | 48.32855 | 11.59665 | 3620 ft | 189 kts | 83° |
| 2026-05-08 05:57 | 48.33003 | 11.61531 | 3356 ft | 175 kts | 84° |
| 2026-05-08 05:57 | 48.33139 | 11.63259 | 3156 ft | 158 kts | 84° |
| 2026-05-08 05:58 | 48.33261 | 11.64812 | 2935 ft | 143 kts | 83° |
| 2026-05-08 05:58 | 48.33375 | 11.66261 | 2746 ft | 137 kts | 83° |
| 2026-05-08 05:58 | 48.33485 | 11.67659 | 2559 ft | 134 kts | 83° |
| 2026-05-08 05:58 | 48.33593 | 11.69044 | 2364 ft | 134 kts | 83° |
| 2026-05-08 05:59 | 48.33701 | 11.70429 | 2174 ft | 134 kts | 83° |
| 2026-05-08 05:59 | 48.33809 | 11.71812 | 1987 ft | 133 kts | 82° |
| 2026-05-08 05:59 | 48.33916 | 11.73182 | 1804 ft | 133 kts | 83° |
| 2026-05-08 05:59 | 48.34023 | 11.74559 | 1623 ft | 133 kts | 83° |
| 2026-05-08 06:00 | 48.34129 | 11.75923 | 1486 ft | 124 kts | 83° |
| 2026-05-08 06:00 | 48.34214 | 11.76980 | 1485 ft | 80 kts | 83° |
| 2026-05-08 06:00 | 48.34256 | 11.77539 | 1485 ft | 37 kts | 84° |
| 2026-05-08 06:00 | 48.34283 | 11.77910 | 1485 ft | 34 kts | 83° |
| 2026-05-08 06:01 | 48.34335 | 11.78245 | 1483 ft | 32 kts | 62° |
| 2026-05-08 06:01 | 48.34421 | 11.78442 | 1477 ft | 14 kts | 54° |
| 2026-05-08 06:01 | 48.34481 | 11.78567 | 1481 ft | 16 kts | 54° |
| 2026-05-08 06:01 | 48.34554 | 11.78707 | 1485 ft | 18 kts | 42° |
| 2026-05-08 06:02 | 48.34674 | 11.78724 | 1478 ft | 19 kts | 351° |
| 2026-05-08 06:02 | 48.34718 | 11.78625 | 1481 ft | 12 kts | 263° |
| 2026-05-08 06:02 | 48.34709 | 11.78503 | 1482 ft | 11 kts | 265° |
| 2026-05-08 06:02 | 48.34698 | 11.78327 | 1476 ft | 27 kts | 262° |
| 2026-05-08 06:03 | 48.34683 | 11.78151 | 1478 ft | 0 kts | 264° |
| 2026-05-08 06:03 | 48.34683 | 11.78143 | 1485 ft | 6 kts | 264° |
| 2026-05-08 06:03 | 48.34708 | 11.78055 | 1483 ft | 10 kts | 336° |
| 2026-05-08 06:03 | 48.34769 | 11.78042 | 1486 ft | 8 kts | 354° |
| 2026-05-08 06:04 | 48.34840 | 11.78040 | 1485 ft | 15 kts | 9° |
| 2026-05-08 06:04 | 48.34884 | 11.78175 | 1483 ft | 17 kts | 83° |
| 2026-05-08 06:04 | 48.34950 | 11.78269 | 1485 ft | 15 kts | 350° |
| 2026-05-08 06:04 | 48.35041 | 11.78256 | 1485 ft | 9 kts | 6° |
| 2026-05-08 06:05 | 48.35054 | 11.78324 | 1478 ft | 6 kts | 86° |
| 2026-05-08 06:05 | 48.35056 | 11.78344 | 1475 ft | 0 kts | 83° |
| 2026-05-08 06:05 | 48.35056 | 11.78345 | 1478 ft | 1 kts | 83° |
| 2026-05-08 06:05 | 48.35057 | 11.78358 | 1481 ft | 0 kts | 83° |